createdAt,value
2019-05-11T00:01:09.122Z,77.40
2019-05-11T00:04:10.463Z,77.10
2019-05-11T00:07:11.849Z,75.40
2019-05-11T00:10:13.384Z,74.90
2019-05-11T00:13:15.588Z,74.50
2019-05-11T00:16:19.027Z,73.90
2019-05-11T00:19:20.108Z,74.50
2019-05-11T00:22:21.484Z,74.50
2019-05-11T00:25:23.934Z,74.30
2019-05-11T00:28:25.341Z,73.80
2019-05-11T00:31:26.863Z,73.90
2019-05-11T00:34:28.261Z,72.90
2019-05-11T00:37:29.687Z,72.50
2019-05-11T00:40:31.113Z,72.80
2019-05-11T00:43:32.541Z,73.10
2019-05-11T00:46:33.976Z,72.10
2019-05-11T00:49:35.354Z,72.50
2019-05-11T00:52:36.751Z,73.20
2019-05-11T00:55:38.316Z,74.40
2019-05-11T00:58:39.734Z,75.20
2019-05-11T01:01:41.158Z,75.90
2019-05-11T01:04:42.573Z,76.20
2019-05-11T01:07:44.042Z,76.60
2019-05-11T01:10:45.547Z,76.80
2019-05-11T01:13:46.999Z,77.10
2019-05-11T01:16:48.408Z,77.20
2019-05-11T01:19:49.792Z,77.30
2019-05-11T01:22:51.264Z,77.30
2019-05-11T01:25:52.877Z,77.60
2019-05-11T01:28:54.328Z,77.70
2019-05-11T01:31:55.779Z,77.50
2019-05-11T01:34:57.148Z,77.50
2019-05-11T01:37:58.604Z,77.00
2019-05-11T01:41:00.045Z,77.00
2019-05-11T01:44:01.435Z,76.50
2019-05-11T01:47:02.903Z,76.40
2019-05-11T01:50:05.329Z,76.10
2019-05-11T01:53:06.737Z,76.10
2019-05-11T01:56:08.172Z,76.20
2019-05-11T01:59:09.599Z,77.10
2019-05-11T02:02:11.034Z,76.40
2019-05-11T02:05:31.397Z,76.20
2019-05-11T02:08:32.802Z,76.20
2019-05-11T02:11:34.208Z,76.20
2019-05-11T02:14:35.607Z,76.10
2019-05-11T02:17:37.040Z,76.10
2019-05-11T02:20:38.490Z,75.90
2019-05-11T02:23:39.882Z,76.10
2019-05-11T02:26:41.327Z,76.20
2019-05-11T02:29:42.882Z,76.10
2019-05-11T02:32:44.325Z,76.00
2019-05-11T02:35:45.803Z,76.10
2019-05-11T02:38:47.229Z,76.30
2019-05-11T02:41:48.706Z,76.60
2019-05-11T02:44:50.118Z,77.20
2019-05-11T02:47:51.553Z,77.70
2019-05-11T02:50:53.924Z,78.30
2019-05-11T02:53:55.876Z,78.80
2019-05-11T02:56:57.320Z,79.30
2019-05-11T02:59:58.798Z,79.90
2019-05-11T03:03:00.209Z,79.70
2019-05-11T03:06:01.630Z,79.90
2019-05-11T03:09:03.465Z,79.70
2019-05-11T03:12:04.898Z,79.60
2019-05-11T03:15:06.634Z,79.80
2019-05-11T03:18:08.061Z,79.60
2019-05-11T03:21:09.464Z,79.60
2019-05-11T03:24:10.885Z,79.60
2019-05-11T03:27:12.333Z,79.60
2019-05-11T03:30:13.814Z,79.60
2019-05-11T03:33:15.250Z,79.50
2019-05-11T03:36:16.678Z,79.40
2019-05-11T03:39:18.100Z,79.50
2019-05-11T03:42:19.543Z,79.50
2019-05-11T03:45:20.925Z,79.50
2019-05-11T03:48:23.398Z,79.70
2019-05-11T03:51:24.812Z,80.00
2019-05-11T03:54:27.280Z,80.40
2019-05-11T03:57:28.702Z,80.70
2019-05-11T04:00:30.118Z,81.10
2019-05-11T04:03:31.524Z,81.50
2019-05-11T04:06:32.906Z,82.70
2019-05-11T04:09:34.359Z,82.00
2019-05-11T04:12:35.990Z,82.20
2019-05-11T04:15:37.539Z,82.10
2019-05-11T04:18:39.050Z,82.10
2019-05-11T04:21:40.438Z,82.30
2019-05-11T04:24:41.989Z,82.20
2019-05-11T04:27:43.354Z,82.30
2019-05-11T04:30:44.771Z,82.40
2019-05-11T04:33:46.170Z,82.30
2019-05-11T04:36:47.607Z,82.40
2019-05-11T04:39:49.011Z,82.20
2019-05-11T04:42:56.016Z,82.20
2019-05-11T04:45:53.682Z,82.20
2019-05-11T04:48:55.131Z,82.20
2019-05-11T04:51:56.550Z,81.90
2019-05-11T04:54:59.058Z,82.10
2019-05-11T04:58:00.434Z,82.20
2019-05-11T05:01:01.890Z,82.20
2019-05-11T05:04:13.408Z,82.50
2019-05-11T05:07:10.725Z,82.60
2019-05-11T05:10:14.010Z,82.60
2019-05-11T05:13:14.106Z,82.80
2019-05-11T05:16:15.521Z,82.80
2019-05-11T05:19:16.927Z,83.10
2019-05-11T05:22:18.372Z,83.00
2019-05-11T05:25:19.754Z,83.00
2019-05-11T05:28:21.165Z,82.90
2019-05-11T05:31:22.611Z,82.60
2019-05-11T05:34:24.005Z,82.60
2019-05-11T05:37:25.434Z,82.40
2019-05-11T05:40:26.777Z,81.80
2019-05-11T05:43:28.716Z,81.50
2019-05-11T05:46:30.097Z,81.50
2019-05-11T05:49:31.541Z,81.20
2019-05-11T05:52:33.008Z,81.30
2019-05-11T05:55:34.437Z,81.10
2019-05-11T05:58:35.893Z,81.10
2019-05-11T06:01:37.271Z,81.00
2019-05-11T06:04:38.660Z,80.70
2019-05-11T06:07:40.030Z,80.70
2019-05-11T06:10:41.411Z,81.00
2019-05-11T06:13:45.571Z,81.10
2019-05-11T06:16:45.904Z,81.10
2019-05-11T06:19:47.348Z,80.90
2019-05-11T06:22:48.790Z,80.30
2019-05-11T06:25:50.193Z,80.00
2019-05-11T06:28:51.650Z,79.70
2019-05-11T06:31:53.034Z,79.60
2019-05-11T06:34:54.405Z,79.60
2019-05-11T06:37:55.880Z,79.10
2019-05-11T06:40:57.338Z,78.60
2019-05-11T06:44:01.951Z,78.20
2019-05-11T06:47:01.883Z,77.30
2019-05-11T06:50:03.558Z,77.70
2019-05-11T06:53:06.045Z,77.10
2019-05-11T06:56:07.441Z,76.80
2019-05-11T06:59:08.864Z,76.10
2019-05-11T07:02:10.245Z,75.30
2019-05-11T07:05:11.763Z,74.40
2019-05-11T07:08:13.145Z,74.50
2019-05-11T07:11:14.632Z,74.30
2019-05-11T07:14:21.003Z,73.30
2019-05-11T07:17:20.224Z,73.60
2019-05-11T07:20:21.649Z,72.20
2019-05-11T07:23:23.023Z,71.60
2019-05-11T07:26:24.432Z,71.10
2019-05-11T07:29:25.909Z,70.80
2019-05-11T07:32:29.355Z,70.10
2019-05-11T07:35:30.441Z,70.60
2019-05-11T07:38:31.850Z,68.90
2019-05-11T07:41:33.307Z,67.80
2019-05-11T07:44:38.485Z,69.20
2019-05-11T07:47:38.146Z,67.60
2019-05-11T07:50:39.708Z,68.30
2019-05-11T07:53:41.080Z,68.50
2019-05-11T07:56:42.475Z,67.20
2019-05-11T07:59:44.040Z,67.80
2019-05-11T08:02:47.847Z,66.80
2019-05-11T08:05:48.529Z,67.10
2019-05-11T08:08:49.948Z,66.70
2019-05-11T08:11:51.324Z,67.20
2019-05-11T08:15:02.642Z,65.70
2019-05-11T08:17:57.882Z,64.60
2019-05-11T08:20:59.070Z,63.30
2019-05-11T08:24:00.521Z,61.90
2019-05-11T08:27:03.010Z,61.40
2019-05-11T08:30:04.743Z,60.00
2019-05-11T08:33:08.505Z,60.60
2019-05-11T08:36:09.274Z,57.70
2019-05-11T08:39:10.725Z,55.80
2019-05-11T08:42:12.141Z,54.70
2019-05-11T08:45:20.409Z,54.60
2019-05-11T08:48:18.684Z,53.50
2019-05-11T08:51:19.906Z,54.10
2019-05-11T08:54:21.361Z,53.00
2019-05-11T08:57:22.788Z,51.70
2019-05-11T09:00:24.211Z,50.50
2019-05-11T09:03:25.589Z,48.90
2019-05-11T09:06:28.414Z,48.80
2019-05-11T09:09:30.122Z,48.10
2019-05-11T09:12:31.504Z,47.50
2019-05-11T09:15:37.127Z,46.20
2019-05-11T09:18:38.407Z,46.20
2019-05-11T09:21:39.202Z,46.50
2019-05-11T09:24:40.651Z,47.00
2019-05-11T09:27:43.503Z,47.20
2019-05-11T09:30:45.180Z,47.70
2019-05-11T09:33:48.023Z,46.60
2019-05-11T09:36:49.693Z,46.60
2019-05-11T09:39:51.144Z,47.40
2019-05-11T09:42:52.542Z,47.90
2019-05-11T09:45:53.954Z,48.40
2019-05-11T09:48:55.459Z,48.50
2019-05-11T09:51:58.946Z,47.10
2019-05-11T09:55:00.061Z,47.50
2019-05-11T09:58:01.431Z,47.40
2019-05-11T10:01:02.834Z,47.80
2019-05-11T10:04:05.308Z,48.10
2019-05-11T10:07:08.841Z,48.60
2019-05-11T10:10:10.333Z,48.40
2019-05-11T10:13:11.792Z,47.70
2019-05-11T10:16:13.228Z,47.30
2019-05-11T10:19:14.639Z,47.60
2019-05-11T10:22:18.409Z,46.80
2019-05-11T10:25:19.248Z,46.60
2019-05-11T10:28:20.757Z,45.40
2019-05-11T10:31:22.146Z,45.70
2019-05-11T10:34:23.562Z,45.70
2019-05-11T10:37:25.019Z,46.40
2019-05-11T10:40:28.188Z,46.30
2019-05-11T10:43:29.622Z,47.40
2019-05-11T10:46:31.023Z,46.00
2019-05-11T10:49:32.439Z,46.00
2019-05-11T10:52:33.847Z,44.90
2019-05-11T10:55:38.707Z,45.80
2019-05-11T10:58:41.217Z,45.00
2019-05-11T11:01:42.638Z,45.40
2019-05-11T11:04:44.061Z,44.70
2019-05-11T11:07:45.491Z,45.40
2019-05-11T11:10:48.387Z,45.10
2019-05-11T11:13:50.169Z,43.90
2019-05-11T11:16:51.536Z,42.50
2019-05-11T11:19:52.945Z,43.00
2019-05-11T11:22:54.357Z,43.00
2019-05-11T11:25:55.752Z,42.70
2019-05-11T11:28:58.055Z,41.80
2019-05-11T11:32:04.213Z,42.30
2019-05-11T11:35:08.238Z,42.10
2019-05-11T11:38:09.231Z,42.90
2019-05-11T11:41:10.608Z,42.30
2019-05-11T11:44:12.023Z,42.80
2019-05-11T11:47:13.408Z,43.90
2019-05-11T11:50:14.918Z,45.50
2019-05-11T11:53:18.623Z,46.70
2019-05-11T11:56:19.440Z,50.70
2019-05-11T11:59:20.849Z,51.20
2019-05-11T12:02:22.218Z,51.50
2019-05-11T12:05:23.749Z,52.70
2019-05-11T12:08:25.121Z,50.50
2019-05-11T12:11:27.929Z,50.20
2019-05-11T12:14:29.523Z,50.20
2019-05-11T12:17:30.934Z,49.90
2019-05-11T12:20:32.334Z,47.60
2019-05-11T12:23:33.680Z,47.20
2019-05-11T12:26:35.080Z,45.40
2019-05-11T12:29:38.393Z,43.60
2019-05-11T12:32:48.541Z,44.50
2019-05-11T12:35:49.446Z,44.00
2019-05-11T12:38:50.809Z,43.90
2019-05-11T12:41:52.213Z,44.00
2019-05-11T12:44:53.611Z,45.20
2019-05-11T12:47:55.000Z,45.20
2019-05-11T12:50:58.641Z,45.00
2019-05-11T12:53:59.579Z,44.00
2019-05-11T12:57:01.000Z,42.60
2019-05-11T13:00:02.425Z,42.40
2019-05-11T13:03:03.878Z,42.50
2019-05-11T13:06:05.278Z,43.10
2019-05-11T13:09:08.100Z,41.80
2019-05-11T13:12:09.553Z,42.30
2019-05-11T13:15:11.215Z,43.20
2019-05-11T13:18:12.630Z,44.30
2019-05-11T13:21:14.197Z,44.90
2019-05-11T13:24:15.634Z,46.90
2019-05-11T13:27:17.866Z,48.90
2019-05-11T13:30:19.686Z,48.70
2019-05-11T13:33:21.074Z,48.10
2019-05-11T13:36:22.506Z,48.00
2019-05-11T13:39:23.875Z,48.10
2019-05-11T13:42:27.600Z,49.00
2019-05-11T13:45:28.460Z,50.60
2019-05-11T13:48:29.881Z,51.40
2019-05-11T13:51:31.298Z,51.70
2019-05-11T13:54:32.685Z,53.10
2019-05-11T13:57:34.342Z,54.90
2019-05-11T14:00:37.881Z,55.00
2019-05-11T14:03:38.937Z,54.50
2019-05-11T14:06:40.343Z,54.60
2019-05-11T14:09:41.715Z,55.20
2019-05-11T14:12:43.162Z,54.60
2019-05-11T14:15:44.767Z,54.80
2019-05-11T14:18:48.623Z,54.70
2019-05-11T14:21:49.413Z,54.70
2019-05-11T14:24:50.805Z,53.50
2019-05-11T14:27:52.180Z,53.00
2019-05-11T14:30:53.561Z,52.30
2019-05-11T14:33:55.024Z,53.20
2019-05-11T14:36:58.176Z,54.90
2019-05-11T14:39:59.475Z,55.70
2019-05-11T14:43:00.925Z,56.70
2019-05-11T14:46:02.331Z,57.00
2019-05-11T14:49:03.721Z,56.40
2019-05-11T14:52:05.110Z,56.40
2019-05-11T14:55:08.203Z,56.20
2019-05-11T14:58:09.811Z,55.70
2019-05-11T15:01:14.338Z,54.60
2019-05-11T15:04:14.306Z,54.50
2019-05-11T15:07:17.760Z,54.50
2019-05-11T15:10:21.275Z,54.10
2019-05-11T15:13:22.665Z,54.10
2019-05-11T15:16:25.093Z,54.30
2019-05-11T15:19:27.892Z,54.30
2019-05-11T15:22:29.361Z,54.70
2019-05-11T15:25:30.741Z,54.90
2019-05-11T15:28:32.113Z,54.50
2019-05-11T15:31:33.818Z,55.00
2019-05-11T15:34:35.207Z,56.80
2019-05-11T15:37:38.475Z,57.70
2019-05-11T15:40:39.653Z,58.50
2019-05-11T15:43:41.032Z,59.70
2019-05-11T15:46:42.397Z,61.20
2019-05-11T15:49:43.785Z,61.80
2019-05-11T15:52:45.308Z,62.70
2019-05-11T15:55:47.884Z,63.40
2019-05-11T15:58:49.353Z,64.10
2019-05-11T16:01:50.754Z,64.90
2019-05-11T16:04:52.158Z,65.40
2019-05-11T16:07:53.625Z,65.90
2019-05-11T16:10:55.026Z,66.70
2019-05-11T16:13:58.578Z,67.20
2019-05-11T16:16:59.614Z,68.90
2019-05-11T16:20:01.077Z,68.40
2019-05-11T16:23:02.528Z,69.80
2019-05-11T16:26:03.885Z,70.50
2019-05-11T16:29:05.387Z,70.80
2019-05-11T16:32:08.379Z,71.80
2019-05-11T16:35:10.680Z,72.00
2019-05-11T16:38:12.185Z,72.10
2019-05-11T16:41:13.575Z,72.10
2019-05-11T16:44:14.974Z,72.90
2019-05-11T16:47:18.137Z,74.30
2019-05-11T16:50:20.558Z,74.90
2019-05-11T16:53:21.974Z,74.30
2019-05-11T16:56:23.394Z,75.00
2019-05-11T16:59:24.823Z,75.90
2019-05-11T17:02:27.400Z,76.20
2019-05-11T17:05:33.480Z,76.40
2019-05-11T17:08:32.499Z,76.20
2019-05-11T17:11:35.253Z,76.40
2019-05-11T17:14:39.977Z,76.40
2019-05-11T17:17:41.445Z,76.50
2019-05-11T17:20:42.927Z,76.40
2019-05-11T17:23:44.386Z,76.50
2019-05-11T17:26:47.837Z,76.40
2019-05-11T17:29:49.097Z,76.30
2019-05-11T17:32:50.462Z,76.40
2019-05-11T17:35:51.868Z,76.90
2019-05-11T17:38:53.407Z,76.80
2019-05-11T17:41:54.792Z,76.60
2019-05-11T17:44:58.777Z,76.40
2019-05-11T17:47:59.348Z,76.40
2019-05-11T17:51:00.793Z,76.70
2019-05-11T17:54:03.288Z,76.90
2019-05-11T17:57:04.806Z,76.30
2019-05-11T18:00:08.886Z,76.10
2019-05-11T18:03:11.231Z,76.10
2019-05-11T18:06:13.102Z,76.10
2019-05-11T18:09:14.524Z,76.20
2019-05-11T18:12:17.665Z,76.20
2019-05-11T18:15:19.353Z,76.10
2019-05-11T18:18:23.899Z,76.20
2019-05-11T18:21:24.103Z,76.60
2019-05-11T18:24:25.479Z,76.70
2019-05-11T18:27:27.818Z,76.90
2019-05-11T18:30:29.540Z,76.70
2019-05-11T18:33:31.012Z,76.50
2019-05-11T18:36:32.404Z,76.50
2019-05-11T18:39:33.839Z,76.60
2019-05-11T18:42:35.239Z,76.70
2019-05-11T18:45:38.258Z,76.50
2019-05-11T18:48:39.873Z,76.70
2019-05-11T18:51:41.241Z,76.80
2019-05-11T18:54:42.647Z,76.90
2019-05-11T18:57:44.031Z,77.20
2019-05-11T19:00:45.416Z,77.20
2019-05-11T19:03:47.858Z,77.30
2019-05-11T19:06:49.471Z,77.30
2019-05-11T19:09:50.908Z,77.30
2019-05-11T19:12:52.330Z,77.60
2019-05-11T19:15:53.801Z,77.50
2019-05-11T19:18:55.241Z,77.50
2019-05-11T19:21:58.608Z,77.40
2019-05-11T19:24:59.759Z,77.80
2019-05-11T19:28:01.149Z,78.60
2019-05-11T19:31:02.664Z,78.00
2019-05-11T19:34:04.097Z,77.90
2019-05-11T19:37:05.472Z,78.30
2019-05-11T19:40:09.081Z,78.40
2019-05-11T19:43:12.711Z,78.70
2019-05-11T19:46:14.208Z,78.60
2019-05-11T19:49:15.630Z,78.40
2019-05-11T19:52:17.795Z,79.10
2019-05-11T19:55:19.275Z,78.50
2019-05-11T19:58:20.652Z,78.60
2019-05-11T20:01:22.026Z,78.70
2019-05-11T20:04:23.479Z,79.00
2019-05-11T20:07:24.934Z,78.90
2019-05-11T20:10:27.729Z,78.70
2019-05-11T20:13:29.414Z,78.50
2019-05-11T20:16:30.808Z,78.90
2019-05-11T20:19:32.259Z,78.80
2019-05-11T20:22:33.702Z,79.00
2019-05-11T20:25:37.808Z,79.00
2019-05-11T20:28:38.266Z,79.20
2019-05-11T20:31:39.663Z,79.10
2019-05-11T20:34:41.106Z,78.90
2019-05-11T20:37:42.455Z,78.80
2019-05-11T20:40:43.959Z,79.00
2019-05-11T20:43:46.458Z,78.90
2019-05-11T20:46:48.629Z,79.00
2019-05-11T20:49:50.136Z,79.60
2019-05-11T20:52:51.509Z,79.40
2019-05-11T20:55:52.952Z,79.20
2019-05-11T20:58:59.298Z,79.20
2019-05-11T21:02:01.546Z,79.20
2019-05-11T21:05:02.948Z,79.00
2019-05-11T21:08:04.397Z,79.20
2019-05-11T21:11:05.870Z,80.00
2019-05-11T21:14:08.073Z,79.30
2019-05-11T21:17:09.688Z,79.40
2019-05-11T21:20:11.628Z,79.50
2019-05-11T21:23:13.290Z,79.20
2019-05-11T21:26:15.890Z,79.30
2019-05-11T21:29:18.739Z,79.40
2019-05-11T21:32:20.284Z,80.10
2019-05-11T21:35:22.819Z,79.50
2019-05-11T21:38:24.233Z,79.50
2019-05-11T21:41:30.544Z,79.60
2019-05-11T21:44:28.817Z,79.60
2019-05-11T21:47:30.274Z,79.40
2019-05-11T21:50:31.698Z,79.40
2019-05-11T21:53:33.148Z,79.40
2019-05-11T21:56:34.524Z,79.80
2019-05-11T21:59:37.957Z,80.10
2019-05-11T22:02:39.261Z,80.20
2019-05-11T22:05:40.660Z,80.20
2019-05-11T22:08:42.112Z,80.00
2019-05-11T22:11:43.461Z,80.20
2019-05-11T22:14:45.157Z,79.80
2019-05-11T22:17:48.031Z,79.60
2019-05-11T22:20:49.666Z,79.50
2019-05-11T22:23:51.107Z,79.40
2019-05-11T22:26:52.498Z,79.40
2019-05-11T22:29:53.898Z,79.30
2019-05-11T22:32:55.281Z,79.20
2019-05-11T22:35:58.799Z,78.90
2019-05-11T22:38:59.770Z,79.00
2019-05-11T22:42:01.150Z,79.10
2019-05-11T22:45:02.597Z,79.30
2019-05-11T22:48:04.069Z,79.40
2019-05-11T22:51:07.822Z,79.50
2019-05-11T22:54:11.193Z,79.40
2019-05-11T22:57:11.643Z,79.70
2019-05-11T23:00:13.262Z,79.70
2019-05-11T23:03:18.723Z,80.00
2019-05-11T23:06:18.173Z,80.10
2019-05-11T23:09:19.639Z,80.40
2019-05-11T23:12:21.060Z,80.40
2019-05-11T23:15:22.408Z,80.20
2019-05-11T23:18:23.781Z,80.20
2019-05-11T23:21:25.135Z,79.90
2019-05-11T23:24:28.615Z,80.00
2019-05-11T23:27:29.595Z,80.00
2019-05-11T23:30:30.959Z,80.00
2019-05-11T23:33:32.385Z,80.00
2019-05-11T23:36:33.782Z,80.60
2019-05-11T23:39:35.127Z,80.70
2019-05-11T23:42:38.097Z,79.80
2019-05-11T23:45:39.718Z,79.80
2019-05-11T23:48:41.111Z,79.60
2019-05-11T23:51:42.437Z,79.40
2019-05-11T23:54:43.806Z,79.70
2019-05-11T23:57:45.187Z,79.70
